Time,TemperatureF,DewpointF,PressureIn,WindDirection,WindDirectionDegrees,WindSpeedMPH,WindSpeedGustMPH,Humidity,HourlyPrecipIn,Conditions,Clouds,dailyrainin,SoftwareType,DateUTC
2013-06-17 00:02:00,72.3,70.2,29.82,NW,308,0.0,0.0,93,0.00,RA,,0.00,WeatherDisplay:10.37,2013-06-17 05:02:00,
2013-06-17 00:07:00,72.2,70.1,29.82,NW,307,0.0,0.0,93,0.00,RA,,0.00,WeatherDisplay:10.37,2013-06-17 05:07:00,
2013-06-17 00:12:00,72.2,70.1,29.81,NW,308,0.0,0.0,93,0.00,CLR,,0.00,WeatherDisplay:10.37,2013-06-17 05:12:00,
2013-06-17 00:17:00,72.1,70.0,29.82,NW,308,0.0,0.0,93,0.00,CLR,,0.00,WeatherDisplay:10.37,2013-06-17 05:17:00,
2013-06-17 00:22:00,72.1,70.0,29.81,NW,307,0.0,0.0,93,0.00,CLR,,0.00,WeatherDisplay:10.37,2013-06-17 05:22:00,
2013-06-17 00:27:00,72.0,69.9,29.80,NW,308,0.0,0.0,93,0.00,CLR,,0.00,WeatherDisplay:10.37,2013-06-17 05:27:00,
2013-06-17 00:32:00,72.0,69.9,29.80,NW,308,1.2,1.2,93,0.00,CLR,,0.00,WeatherDisplay:10.37,2013-06-17 05:32:00,
2013-06-17 00:37:00,72.1,70.0,29.81,NW,307,0.0,0.0,93,0.00,CLR,,0.00,WeatherDisplay:10.37,2013-06-17 05:37:00,
2013-06-17 00:42:00,72.1,70.0,29.81,NW,308,0.0,0.0,93,0.00,CLR,,0.00,WeatherDisplay:10.37,2013-06-17 05:42:00,
2013-06-17 00:47:00,72.0,69.9,29.80,NW,307,0.0,0.0,93,0.00,CLR,,0.00,WeatherDisplay:10.37,2013-06-17 05:47:00,
2013-06-17 00:52:00,72.0,69.9,29.81,NW,307,0.0,0.0,93,0.00,CLR,,0.00,WeatherDisplay:10.37,2013-06-17 05:52:00,
2013-06-17 00:57:00,72.0,69.9,29.81,NW,307,0.0,0.0,93,0.00,CLR,,0.00,WeatherDisplay:10.37,2013-06-17 05:57:00,
2013-06-17 01:02:00,72.0,69.9,29.81,NW,308,0.0,0.0,93,0.00,CLR,,0.00,WeatherDisplay:10.37,2013-06-17 06:02:00,
2013-06-17 01:07:00,72.0,69.9,29.81,NW,308,0.0,0.0,93,0.00,CLR,,0.00,WeatherDisplay:10.37,2013-06-17 06:07:00,
2013-06-17 01:12:00,72.0,69.9,29.81,NW,307,0.0,0.0,93,0.00,CLR,,0.00,WeatherDisplay:10.37,2013-06-17 06:12:00,
2013-06-17 01:17:00,72.1,70.0,29.81,NW,308,0.0,0.0,93,0.00,CLR,,0.00,WeatherDisplay:10.37,2013-06-17 06:17:00,
2013-06-17 01:22:00,72.1,70.0,29.81,NW,307,1.2,1.2,93,0.00,CLR,,0.00,WeatherDisplay:10.37,2013-06-17 06:22:00,
2013-06-17 01:27:00,72.2,70.1,29.80,NW,307,0.0,0.0,93,0.00,CLR,,0.00,WeatherDisplay:10.37,2013-06-17 06:27:00,
2013-06-17 01:32:00,72.2,70.1,29.80,NW,308,0.0,0.0,93,0.00,CLR,,0.00,WeatherDisplay:10.37,2013-06-17 06:32:00,
2013-06-17 01:37:00,72.2,70.1,29.79,NW,308,0.0,0.0,93,0.00,CLR,,0.00,WeatherDisplay:10.37,2013-06-17 06:37:00,
2013-06-17 01:42:00,72.2,70.1,29.78,NW,308,0.0,0.0,93,0.00,CLR,,0.00,WeatherDisplay:10.37,2013-06-17 06:42:00,
2013-06-17 01:47:00,72.2,70.1,29.78,NW,308,2.3,0.0,93,0.00,CLR,,0.00,WeatherDisplay:10.37,2013-06-17 06:47:00,
2013-06-17 01:52:00,72.2,70.1,29.78,NW,308,0.0,0.0,93,0.00,CLR,,0.00,WeatherDisplay:10.37,2013-06-17 06:52:00,
2013-06-17 01:57:00,72.2,70.1,29.79,NW,308,5.0,5.0,93,0.00,CLR,,0.00,WeatherDisplay:10.37,2013-06-17 06:57:00,
2013-06-17 02:02:00,72.2,70.1,29.79,NW,308,1.2,0.0,93,0.00,CLR,,0.00,WeatherDisplay:10.37,2013-06-17 07:02:00,
2013-06-17 02:07:00,72.2,70.1,29.78,NW,308,1.2,0.0,93,0.00,CLR,,0.00,WeatherDisplay:10.37,2013-06-17 07:07:00,
2013-06-17 02:12:00,72.1,70.0,29.78,NW,308,3.0,3.0,93,0.00,CLR,,0.00,WeatherDisplay:10.37,2013-06-17 07:12:00,
2013-06-17 02:17:00,72.2,70.1,29.78,NW,308,4.6,4.6,93,0.00,CLR,,0.00,WeatherDisplay:10.37,2013-06-17 07:17:00,
2013-06-17 02:22:00,72.2,70.1,29.77,NW,308,1.2,1.2,93,0.00,CLR,,0.00,WeatherDisplay:10.37,2013-06-17 07:22:00,
2013-06-17 02:27:00,72.2,70.1,29.77,NW,308,5.8,5.8,93,0.00,CLR,,0.00,WeatherDisplay:10.37,2013-06-17 07:27:00,
2013-06-17 02:32:00,72.2,70.1,29.77,NW,308,2.3,2.3,93,0.00,CLR,,0.00,WeatherDisplay:10.37,2013-06-17 07:32:00,
2013-06-17 02:37:00,72.1,70.0,29.77,NW,308,0.0,0.0,93,0.00,CLR,,0.00,WeatherDisplay:10.37,2013-06-17 07:37:00,
2013-06-17 02:42:00,72.1,70.0,29.77,NW,307,1.2,1.2,93,0.00,CLR,,0.00,WeatherDisplay:10.37,2013-06-17 07:42:00,
2013-06-17 02:47:00,72.1,70.0,29.76,NW,306,2.3,2.3,93,0.00,CLR,,0.00,WeatherDisplay:10.37,2013-06-17 07:47:00,
2013-06-17 02:52:00,72.1,70.0,29.76,NW,306,2.3,2.3,93,0.00,CLR,,0.00,WeatherDisplay:10.37,2013-06-17 07:52:00,
2013-06-17 02:57:00,72.0,69.9,29.77,NW,306,3.5,3.5,93,0.00,CLR,,0.00,WeatherDisplay:10.37,2013-06-17 07:57:00,
2013-06-17 03:02:00,71.9,70.1,29.76,NW,306,2.3,2.3,94,0.00,CLR,,0.00,WeatherDisplay:10.37,2013-06-17 08:02:00,
2013-06-17 03:07:00,71.9,70.1,29.76,NW,306,2.3,2.3,94,0.00,CLR,,0.00,WeatherDisplay:10.37,2013-06-17 08:07:00,
2013-06-17 03:12:00,71.9,70.1,29.76,NW,306,6.9,6.9,94,0.00,CLR,,0.00,WeatherDisplay:10.37,2013-06-17 08:12:00,
2013-06-17 03:17:00,71.8,70.0,29.76,NW,306,2.0,0.0,94,0.00,CLR,,0.00,WeatherDisplay:10.37,2013-06-17 08:17:00,
2013-06-17 03:22:00,71.8,70.0,29.77,NW,306,2.3,2.3,94,0.00,CLR,,0.00,WeatherDisplay:10.37,2013-06-17 08:22:00,
2013-06-17 03:27:00,71.8,70.0,29.77,NW,306,3.5,3.5,94,0.00,CLR,,0.00,WeatherDisplay:10.37,2013-06-17 08:27:00,
2013-06-17 03:32:00,71.8,70.0,29.76,NW,306,0.0,0.0,94,0.00,CLR,,0.00,WeatherDisplay:10.37,2013-06-17 08:32:00,
2013-06-17 03:37:00,71.8,70.3,29.76,NW,306,1.2,0.0,95,0.00,CLR,,0.00,WeatherDisplay:10.37,2013-06-17 08:37:00,
2013-06-17 03:42:00,71.8,70.3,29.76,NW,306,2.3,2.3,95,0.00,CLR,,0.00,WeatherDisplay:10.37,2013-06-17 08:42:00,
2013-06-17 03:47:00,71.9,70.4,29.76,NW,306,0.0,0.0,95,0.00,CLR,,0.00,WeatherDisplay:10.37,2013-06-17 08:47:00,
2013-06-17 03:52:00,71.9,70.4,29.76,NW,306,0.0,0.0,95,0.00,CLR,,0.00,WeatherDisplay:10.37,2013-06-17 08:52:00,
2013-06-17 03:57:00,71.9,70.4,29.76,NW,306,1.2,1.2,95,0.00,CLR,,0.00,WeatherDisplay:10.37,2013-06-17 08:57:00,
2013-06-17 04:02:00,71.9,70.4,29.77,NW,306,1.2,0.0,95,0.00,CLR,,0.00,WeatherDisplay:10.37,2013-06-17 09:02:00,
2013-06-17 04:07:00,72.0,70.5,29.78,NW,306,6.9,6.9,95,0.00,CLR,,0.00,WeatherDisplay:10.37,2013-06-17 09:07:00,
2013-06-17 04:12:00,72.1,70.6,29.77,WNW,286,10.4,10.4,95,0.00,CLR,,0.00,WeatherDisplay:10.37,2013-06-17 09:12:00,
2013-06-17 04:17:00,72.2,70.7,29.77,South,188,11.5,11.5,95,0.00,CLR,,0.00,WeatherDisplay:10.37,2013-06-17 09:17:00,
2013-06-17 04:22:00,72.2,70.7,29.77,SE,146,5.8,5.8,95,0.00,CLR,,0.00,WeatherDisplay:10.37,2013-06-17 09:22:00,
2013-06-17 04:27:00,72.2,70.7,29.77,SE,146,5.8,5.8,95,0.00,CLR,,0.00,WeatherDisplay:10.37,2013-06-17 09:27:00,
2013-06-17 04:32:00,72.3,70.8,29.77,SE,146,5.8,5.8,95,0.00,CLR,,0.00,WeatherDisplay:10.37,2013-06-17 09:32:00,
2013-06-17 04:37:00,72.4,70.9,29.77,SE,129,11.5,11.5,95,0.00,CLR,,0.00,WeatherDisplay:10.37,2013-06-17 09:37:00,
2013-06-17 04:42:00,72.5,70.7,29.77,SSE,167,10.4,10.4,94,0.00,CLR,,0.00,WeatherDisplay:10.37,2013-06-17 09:42:00,
2013-06-17 04:47:00,72.3,70.2,29.77,ESE,117,17.3,17.3,93,0.00,CLR,,0.00,WeatherDisplay:10.37,2013-06-17 09:47:00,
2013-06-17 04:53:00,72.3,69.8,29.77,SE,129,10.4,10.4,92,0.00,CLR,,0.00,WeatherDisplay:10.37,2013-06-17 09:53:00,
2013-06-17 04:58:00,72.2,69.4,29.78,SSE,168,10.4,10.4,91,0.00,CLR,,0.00,WeatherDisplay:10.37,2013-06-17 09:58:00,
2013-06-17 05:03:00,72.1,69.3,29.78,SSE,150,5.8,5.8,91,0.00,CLR,,0.00,WeatherDisplay:10.37,2013-06-17 10:03:00,
2013-06-17 05:08:00,71.9,68.8,29.78,South,180,11.5,11.5,90,0.00,CLR,,0.00,WeatherDisplay:10.37,2013-06-17 10:08:00,
2013-06-17 05:13:00,71.8,68.7,29.78,SSE,159,6.9,6.9,90,0.00,CLR,,0.00,WeatherDisplay:10.37,2013-06-17 10:13:00,
2013-06-17 05:18:00,71.6,68.5,29.77,SSE,152,2.3,2.3,90,0.00,CLR,,0.00,WeatherDisplay:10.37,2013-06-17 10:18:00,
2013-06-17 05:23:00,71.3,68.2,29.77,SSE,155,9.2,9.2,90,0.00,CLR,,0.00,WeatherDisplay:10.37,2013-06-17 10:23:00,
2013-06-17 05:28:00,71.3,68.2,29.77,South,169,9.2,9.2,90,0.00,CLR,,0.00,WeatherDisplay:10.37,2013-06-17 10:28:00,
2013-06-17 05:33:00,71.3,68.2,29.77,South,171,5.8,5.8,90,0.00,CLR,,0.00,WeatherDisplay:10.37,2013-06-17 10:33:00,
2013-06-17 05:38:00,71.3,68.2,29.77,South,175,4.0,4.0,90,0.00,CLR,,0.00,WeatherDisplay:10.37,2013-06-17 10:38:00,
2013-06-17 05:43:00,71.3,68.2,29.77,South,175,2.0,0.0,90,0.00,CLR,,0.00,WeatherDisplay:10.37,2013-06-17 10:43:00,
2013-06-17 05:48:00,71.3,67.9,29.78,South,175,4.6,4.6,89,0.00,CLR,,0.00,WeatherDisplay:10.37,2013-06-17 10:48:00,
2013-06-17 05:53:00,71.1,67.4,29.78,South,173,10.0,10.0,88,0.00,CLR,,0.00,WeatherDisplay:10.37,2013-06-17 10:53:00,
2013-06-17 05:58:00,71.2,66.8,29.78,South,183,5.0,5.0,86,0.00,CLR,,0.00,WeatherDisplay:10.37,2013-06-17 10:58:00,
2013-06-17 06:03:00,71.1,66.4,29.78,South,183,7.0,7.0,85,0.00,CLR,,0.00,WeatherDisplay:10.37,2013-06-17 11:03:00,
2013-06-17 06:08:00,71.0,65.9,29.77,South,183,5.8,5.8,84,0.00,CLR,,0.00,WeatherDisplay:10.37,2013-06-17 11:08:00,
2013-06-17 06:13:00,70.8,65.7,29.77,South,183,1.2,1.2,84,0.00,CLR,,0.00,WeatherDisplay:10.37,2013-06-17 11:13:00,
2013-06-17 06:18:00,70.6,65.5,29.77,South,183,1.0,1.0,84,0.00,CLR,,0.00,WeatherDisplay:10.37,2013-06-17 11:18:00,
2013-06-17 06:23:00,70.5,65.1,29.77,South,183,0.0,0.0,83,0.00,CLR,,0.00,WeatherDisplay:10.37,2013-06-17 11:23:00,
2013-06-17 06:28:00,70.4,65.3,29.78,South,183,0.0,0.0,84,0.00,CLR,,0.00,WeatherDisplay:10.37,2013-06-17 11:28:00,
2013-06-17 06:33:00,70.2,65.1,29.77,South,183,0.0,0.0,84,0.00,CLR,,0.00,WeatherDisplay:10.37,2013-06-17 11:33:00,
2013-06-17 06:38:00,70.0,65.3,29.77,South,183,2.0,2.0,85,0.00,CLR,,0.00,WeatherDisplay:10.37,2013-06-17 11:38:00,
2013-06-17 06:43:00,69.9,65.2,29.78,South,183,1.2,0.0,85,0.00,CLR,,0.00,WeatherDisplay:10.37,2013-06-17 11:43:00,
2013-06-17 06:48:00,69.8,65.1,29.78,South,183,2.3,2.3,85,0.00,CLR,,0.00,WeatherDisplay:10.37,2013-06-17 11:48:00,
2013-06-17 06:53:00,69.8,65.4,29.79,South,183,0.0,0.0,86,0.00,CLR,,0.00,WeatherDisplay:10.37,2013-06-17 11:53:00,
2013-06-17 06:58:00,69.8,65.4,29.80,South,183,0.0,0.0,86,0.00,CLR,,0.00,WeatherDisplay:10.37,2013-06-17 11:58:00,
2013-06-17 07:03:00,69.9,65.9,29.80,South,183,1.2,1.2,87,0.00,CLR,,0.00,WeatherDisplay:10.37,2013-06-17 12:03:00,
2013-06-17 07:08:00,70.1,66.4,29.79,South,183,2.3,0.0,88,0.00,CLR,,0.00,WeatherDisplay:10.37,2013-06-17 12:08:00,
2013-06-17 07:13:00,70.2,66.8,29.79,South,183,0.0,0.0,89,0.00,CLR,,0.00,WeatherDisplay:10.37,2013-06-17 12:13:00,
2013-06-17 07:18:00,70.3,66.9,29.80,South,183,3.0,3.0,89,0.00,CLR,,0.00,WeatherDisplay:10.37,2013-06-17 12:18:00,
2013-06-17 07:23:00,70.3,67.2,29.79,South,183,2.3,2.3,90,0.00,CLR,,0.00,WeatherDisplay:10.37,2013-06-17 12:23:00,
2013-06-17 07:28:00,70.3,67.2,29.80,South,183,1.0,1.0,90,0.00,CLR,,0.00,WeatherDisplay:10.37,2013-06-17 12:28:00,
2013-06-17 07:33:00,70.3,67.2,29.80,South,183,0.0,0.0,90,0.00,CLR,,0.00,WeatherDisplay:10.37,2013-06-17 12:33:00,
2013-06-17 07:38:00,70.3,67.5,29.80,South,183,1.2,1.2,91,0.00,CLR,,0.00,WeatherDisplay:10.37,2013-06-17 12:38:00,
2013-06-17 07:43:00,70.2,67.4,29.80,South,183,0.0,0.0,91,0.00,CLR,,0.00,WeatherDisplay:10.37,2013-06-17 12:43:00,
2013-06-17 07:48:00,70.1,67.3,29.80,South,183,2.0,2.0,91,0.00,CLR,,0.00,WeatherDisplay:10.37,2013-06-17 12:48:00,
2013-06-17 07:53:00,70.2,67.4,29.80,South,183,0.0,0.0,91,0.00,CLR,,0.00,WeatherDisplay:10.37,2013-06-17 12:53:00,
2013-06-17 07:58:00,70.1,67.3,29.79,South,183,0.0,0.0,91,0.00,CLR,,0.00,WeatherDisplay:10.37,2013-06-17 12:58:00,
2013-06-17 08:03:00,70.1,67.3,29.80,South,183,0.0,0.0,91,0.00,CLR,,0.00,WeatherDisplay:10.37,2013-06-17 13:03:00,
2013-06-17 08:08:00,70.1,67.7,29.80,South,183,1.2,1.2,92,0.00,CLR,,0.00,WeatherDisplay:10.37,2013-06-17 13:08:00,
2013-06-17 08:13:00,70.1,67.7,29.80,South,183,3.5,3.5,92,0.00,CLR,,0.00,WeatherDisplay:10.37,2013-06-17 13:13:00,
2013-06-17 08:18:00,70.2,67.8,29.81,South,183,0.0,0.0,92,0.00,CLR,,0.00,WeatherDisplay:10.37,2013-06-17 13:18:00,
2013-06-17 08:23:00,70.2,67.4,29.81,South,183,0.0,0.6,91,0.00,CLR,,0.00,WeatherDisplay:10.37,2013-06-17 13:23:00,
2013-06-17 08:28:00,70.2,67.4,29.81,South,183,2.3,2.3,91,0.00,CLR,,0.00,WeatherDisplay:10.37,2013-06-17 13:28:00,
2013-06-17 08:33:00,70.3,67.5,29.80,South,183,2.3,2.3,91,0.00,CLR,,0.00,WeatherDisplay:10.37,2013-06-17 13:33:00,
2013-06-17 08:38:00,70.3,67.5,29.81,South,183,3.5,3.5,91,0.00,CLR,,0.00,WeatherDisplay:10.37,2013-06-17 13:38:00,
2013-06-17 08:43:00,70.3,67.5,29.82,South,183,3.5,0.0,91,0.00,CLR,,0.00,WeatherDisplay:10.37,2013-06-17 13:43:00,
2013-06-17 08:48:00,70.4,67.6,29.83,South,183,1.2,0.0,91,0.00,CLR,,0.00,WeatherDisplay:10.37,2013-06-17 13:48:00,
2013-06-17 08:53:00,70.6,68.2,29.83,South,183,0.0,0.0,92,0.00,CLR,,0.00,WeatherDisplay:10.37,2013-06-17 13:53:00,
2013-06-17 08:58:00,70.7,68.3,29.83,South,183,1.2,1.2,92,0.00,CLR,,0.00,WeatherDisplay:10.37,2013-06-17 13:58:00,
2013-06-17 09:03:00,70.7,67.9,29.83,South,183,0.0,0.0,91,0.00,CLR,,0.00,WeatherDisplay:10.37,2013-06-17 14:03:00,
2013-06-17 09:08:00,70.8,68.0,29.83,South,183,0.0,0.0,91,0.00,CLR,,0.00,WeatherDisplay:10.37,2013-06-17 14:08:00,
2013-06-17 09:13:00,70.9,68.1,29.83,South,183,0.0,0.0,91,0.00,CLR,,0.00,WeatherDisplay:10.37,2013-06-17 14:13:00,
2013-06-17 09:18:00,70.9,68.1,29.84,South,183,0.0,0.6,91,0.00,CLR,,0.00,WeatherDisplay:10.37,2013-06-17 14:18:00,
2013-06-17 09:23:00,71.0,68.2,29.84,South,183,0.0,0.0,91,0.00,CLR,,0.00,WeatherDisplay:10.37,2013-06-17 14:23:00,
2013-06-17 09:28:00,71.1,68.3,29.84,South,183,0.0,0.0,91,0.00,CLR,,0.00,WeatherDisplay:10.37,2013-06-17 14:28:00,
2013-06-17 09:33:00,71.2,68.4,29.84,South,183,0.0,0.0,91,0.00,CLR,,0.00,WeatherDisplay:10.37,2013-06-17 14:33:00,
2013-06-17 09:38:00,71.3,68.2,29.85,South,183,0.0,0.0,90,0.00,CLR,,0.00,WeatherDisplay:10.37,2013-06-17 14:38:00,
2013-06-17 09:43:00,71.5,68.4,29.84,South,183,0.0,0.0,90,0.00,CLR,,0.00,WeatherDisplay:10.37,2013-06-17 14:43:00,
2013-06-17 09:48:00,71.6,68.2,29.84,South,183,2.3,2.3,89,0.00,CLR,,0.00,WeatherDisplay:10.37,2013-06-17 14:48:00,
2013-06-17 09:53:00,71.7,68.3,29.84,South,183,2.3,0.0,89,0.00,CLR,,0.00,WeatherDisplay:10.37,2013-06-17 14:53:00,
2013-06-17 09:58:00,72.0,68.6,29.85,South,183,0.0,0.0,89,0.00,CLR,,0.00,WeatherDisplay:10.37,2013-06-17 14:58:00,
2013-06-17 10:03:00,72.2,68.4,29.85,South,183,0.0,0.0,88,0.00,CLR,,0.00,WeatherDisplay:10.37,2013-06-17 15:03:00,
2013-06-17 10:08:00,72.5,68.7,29.85,South,183,0.0,0.1,88,0.00,CLR,,0.00,WeatherDisplay:10.37,2013-06-17 15:08:00,
2013-06-17 10:13:00,72.7,68.6,29.84,South,183,0.0,0.0,87,0.00,CLR,,0.00,WeatherDisplay:10.37,2013-06-17 15:13:00,
2013-06-17 10:18:00,72.9,68.5,29.84,South,183,0.0,0.0,86,0.00,CLR,,0.00,WeatherDisplay:10.37,2013-06-17 15:18:00,
2013-06-17 10:23:00,73.1,67.6,29.85,South,183,0.0,0.0,83,0.00,CLR,,0.00,WeatherDisplay:10.37,2013-06-17 15:23:00,
2013-06-17 10:28:00,73.2,67.7,29.85,South,183,0.0,0.0,83,0.00,CLR,,0.00,WeatherDisplay:10.37,2013-06-17 15:28:00,
2013-06-17 10:33:00,73.6,67.4,29.86,South,183,0.0,0.0,81,0.00,CLR,,0.00,WeatherDisplay:10.37,2013-06-17 15:33:00,
2013-06-17 10:38:00,73.9,67.7,29.86,South,183,0.0,0.0,81,0.00,CLR,,0.00,WeatherDisplay:10.37,2013-06-17 15:38:00,
2013-06-17 10:43:00,74.1,67.5,29.86,South,183,0.0,0.0,80,0.00,CLR,,0.00,WeatherDisplay:10.37,2013-06-17 15:43:00,
2013-06-17 10:48:00,74.3,67.7,29.86,South,183,0.0,0.0,80,0.00,CLR,,0.00,WeatherDisplay:10.37,2013-06-17 15:48:00,
2013-06-17 10:53:00,74.8,68.2,29.86,South,183,0.0,0.0,80,0.00,CLR,,0.00,WeatherDisplay:10.37,2013-06-17 15:53:00,
2013-06-17 10:58:00,75.2,68.2,29.86,South,183,1.2,0.0,79,0.00,CLR,,0.00,WeatherDisplay:10.37,2013-06-17 15:58:00,
2013-06-17 11:03:00,75.5,68.2,29.86,South,183,0.0,0.0,78,0.00,CLR,,0.00,WeatherDisplay:10.37,2013-06-17 16:03:00,
2013-06-17 11:08:00,75.7,68.0,29.87,South,183,0.0,0.0,77,0.00,CLR,,0.00,WeatherDisplay:10.37,2013-06-17 16:08:00,
2013-06-17 11:13:00,76.0,68.6,29.86,South,183,0.0,0.0,78,0.00,CLR,,0.00,WeatherDisplay:10.37,2013-06-17 16:13:00,
2013-06-17 11:18:00,76.2,68.5,29.86,South,183,0.0,0.0,77,0.00,CLR,,0.00,WeatherDisplay:10.37,2013-06-17 16:18:00,
2013-06-17 11:23:00,76.5,68.4,29.86,South,183,0.0,0.0,76,0.00,CLR,,0.00,WeatherDisplay:10.37,2013-06-17 16:23:00,
2013-06-17 11:28:00,76.7,68.6,29.86,South,183,0.0,0.0,76,0.00,CLR,,0.00,WeatherDisplay:10.37,2013-06-17 16:28:00,
2013-06-17 11:33:00,76.5,68.4,29.86,South,183,1.2,0.0,76,0.00,CLR,,0.00,WeatherDisplay:10.37,2013-06-17 16:33:00,
2013-06-17 11:38:00,76.6,68.5,29.86,South,183,0.0,0.0,76,0.00,CLR,,0.00,WeatherDisplay:10.37,2013-06-17 16:38:00,
2013-06-17 11:43:00,76.8,68.7,29.86,South,183,1.2,0.0,76,0.00,CLR,,0.00,WeatherDisplay:10.37,2013-06-17 16:43:00,
2013-06-17 11:48:00,76.9,68.8,29.86,South,183,1.2,0.0,76,0.00,CLR,,0.00,WeatherDisplay:10.37,2013-06-17 16:48:00,
2013-06-17 11:53:00,76.9,68.8,29.86,South,183,2.3,0.0,76,0.00,CLR,,0.00,WeatherDisplay:10.37,2013-06-17 16:53:00,
2013-06-17 11:58:00,77.0,68.9,29.86,South,183,1.2,0.0,76,0.00,CLR,,0.00,WeatherDisplay:10.37,2013-06-17 16:58:00,
2013-06-17 12:03:00,77.1,69.3,29.86,South,183,1.2,0.0,77,0.00,CLR,,0.00,WeatherDisplay:10.37,2013-06-17 17:03:00,
2013-06-17 12:08:00,77.3,69.5,29.86,South,183,0.0,0.0,77,0.00,CLR,,0.00,WeatherDisplay:10.37,2013-06-17 17:08:00,
2013-06-17 12:13:00,77.2,69.0,29.87,South,183,0.0,0.0,76,0.00,CLR,,0.00,WeatherDisplay:10.37,2013-06-17 17:13:00,
2013-06-17 12:18:00,77.1,68.9,29.87,South,183,1.0,0.0,76,0.00,CLR,,0.00,WeatherDisplay:10.37,2013-06-17 17:18:00,
2013-06-17 12:23:00,76.7,68.9,29.86,South,183,1.2,0.0,77,0.00,CLR,,0.00,WeatherDisplay:10.37,2013-06-17 17:23:00,
2013-06-17 12:28:00,76.7,69.3,29.86,South,183,0.0,0.1,78,0.00,CLR,,0.00,WeatherDisplay:10.37,2013-06-17 17:28:00,
2013-06-17 12:33:00,77.1,69.7,29.86,South,183,1.2,0.0,78,0.00,CLR,,0.00,WeatherDisplay:10.37,2013-06-17 17:33:00,
2013-06-17 12:38:00,77.3,69.5,29.86,South,183,0.0,1.7,77,0.00,CLR,,0.00,WeatherDisplay:10.37,2013-06-17 17:38:00,
2013-06-17 12:43:00,77.3,69.5,29.86,South,183,3.5,3.5,77,0.00,CLR,,0.00,WeatherDisplay:10.37,2013-06-17 17:43:00,
2013-06-17 12:48:00,77.1,69.3,29.86,South,183,3.0,3.0,77,0.00,CLR,,0.00,WeatherDisplay:10.37,2013-06-17 17:48:00,
2013-06-17 12:53:00,77.1,69.7,29.86,South,183,3.5,0.0,78,0.00,CLR,,0.00,WeatherDisplay:10.37,2013-06-17 17:53:00,
2013-06-17 12:58:00,77.1,69.3,29.86,South,183,2.3,2.3,77,0.00,CLR,,0.00,WeatherDisplay:10.37,2013-06-17 17:58:00,
2013-06-17 13:03:00,77.0,69.2,29.86,South,183,3.5,3.5,77,0.00,CLR,,0.00,WeatherDisplay:10.37,2013-06-17 18:03:00,
2013-06-17 13:08:00,77.0,69.6,29.86,South,183,1.0,1.0,78,0.00,CLR,,0.00,WeatherDisplay:10.37,2013-06-17 18:08:00,
2013-06-17 13:13:00,76.8,69.4,29.86,South,183,0.0,0.0,78,0.00,CLR,,0.00,WeatherDisplay:10.37,2013-06-17 18:13:00,
2013-06-17 13:18:00,76.4,69.4,29.86,South,183,3.0,3.0,79,0.00,CLR,,0.00,WeatherDisplay:10.37,2013-06-17 18:18:00,
2013-06-17 13:23:00,76.1,69.1,29.86,South,183,3.5,3.5,79,0.00,CLR,,0.00,WeatherDisplay:10.37,2013-06-17 18:23:00,
2013-06-17 13:28:00,75.9,69.3,29.85,South,184,1.2,1.2,80,0.00,CLR,,0.00,WeatherDisplay:10.37,2013-06-17 18:28:00,
2013-06-17 13:33:00,76.1,69.8,29.85,South,183,1.2,1.2,81,0.00,CLR,,0.00,WeatherDisplay:10.37,2013-06-17 18:33:00,
2013-06-17 13:38:00,76.5,69.9,29.85,South,183,2.3,2.3,80,0.00,CLR,,0.00,WeatherDisplay:10.37,2013-06-17 18:38:00,
2013-06-17 13:43:00,76.9,69.9,29.84,South,184,2.3,2.3,79,0.00,CLR,,0.00,WeatherDisplay:10.37,2013-06-17 18:43:00,
2013-06-17 13:48:00,77.1,69.7,29.85,South,184,2.3,2.3,78,0.00,CLR,,0.00,WeatherDisplay:10.37,2013-06-17 18:48:00,
2013-06-17 13:53:00,77.3,70.3,29.85,South,183,0.0,0.0,79,0.00,CLR,,0.00,WeatherDisplay:10.37,2013-06-17 18:53:00,
2013-06-17 13:58:00,78.0,71.0,29.85,South,184,0.0,0.0,79,0.00,CLR,,0.00,WeatherDisplay:10.37,2013-06-17 18:58:00,
2013-06-17 14:03:00,78.4,70.6,29.85,South,184,1.2,1.2,77,0.00,CLR,,0.00,WeatherDisplay:10.37,2013-06-17 19:03:00,
2013-06-17 14:08:00,78.3,70.5,29.84,South,183,0.0,0.0,77,0.00,CLR,,0.00,WeatherDisplay:10.37,2013-06-17 19:08:00,
2013-06-17 14:13:00,78.0,70.6,29.84,South,184,2.3,2.3,78,0.00,CLR,,0.00,WeatherDisplay:10.37,2013-06-17 19:13:00,
2013-06-17 14:18:00,78.0,71.0,29.84,South,184,0.0,0.0,79,0.00,CLR,,0.00,WeatherDisplay:10.37,2013-06-17 19:18:00,
2013-06-17 14:23:00,78.2,70.8,29.84,South,184,0.0,0.0,78,0.00,CLR,,0.00,WeatherDisplay:10.37,2013-06-17 19:23:00,
2013-06-17 14:28:00,78.6,71.2,29.83,South,184,1.2,0.0,78,0.00,CLR,,0.00,WeatherDisplay:10.37,2013-06-17 19:28:00,
2013-06-17 14:33:00,78.9,71.1,29.83,South,184,4.0,4.0,77,0.00,CLR,,0.00,WeatherDisplay:10.37,2013-06-17 19:33:00,
2013-06-17 14:41:00,78.8,70.6,29.83,South,184,0.0,1.4,76,0.00,CLR,,0.00,WeatherDisplay:10.37,2013-06-17 19:41:00,
2013-06-17 14:46:00,78.8,70.6,29.83,South,184,0.0,1.4,76,0.00,CLR,,0.00,WeatherDisplay:10.37,2013-06-17 19:46:00,
2013-06-17 14:51:00,78.8,70.6,29.83,South,184,0.0,1.4,76,0.00,CLR,,0.00,WeatherDisplay:10.37,2013-06-17 19:51:00,
2013-06-17 14:56:00,78.8,70.6,29.83,South,184,0.0,1.4,76,0.00,CLR,,0.00,WeatherDisplay:10.37,2013-06-17 19:56:00,
2013-06-17 15:01:00,78.8,70.6,29.83,South,184,0.0,1.4,76,0.00,CLR,,0.00,WeatherDisplay:10.37,2013-06-17 20:01:00,
2013-06-17 15:06:00,78.8,70.6,29.83,South,184,0.0,1.4,76,0.00,CLR,,0.00,WeatherDisplay:10.37,2013-06-17 20:06:00,
2013-06-17 15:11:00,78.8,70.6,29.83,South,184,0.0,1.4,76,0.00,CLR,,0.00,WeatherDisplay:10.37,2013-06-17 20:11:00,
2013-06-17 15:16:00,79.4,71.2,29.82,South,184,1.2,0.0,76,0.00,CLR,,0.00,WeatherDisplay:10.37,2013-06-17 20:16:00,
2013-06-17 15:21:00,79.3,71.1,29.83,South,184,1.2,0.0,76,0.00,CLR,,0.00,WeatherDisplay:10.37,2013-06-17 20:21:00,
2013-06-17 15:26:00,79.1,70.9,29.82,South,184,1.2,0.0,76,0.00,CLR,,0.00,WeatherDisplay:10.37,2013-06-17 20:26:00,
2013-06-17 15:31:00,79.3,71.8,29.82,South,184,1.2,0.0,78,0.00,CLR,,0.00,WeatherDisplay:10.37,2013-06-17 20:31:00,
2013-06-17 15:36:00,79.4,70.8,29.83,South,184,3.5,3.5,75,0.00,CLR,,0.00,WeatherDisplay:10.37,2013-06-17 20:36:00,
2013-06-17 15:41:00,78.9,70.7,29.83,South,184,1.2,0.0,76,0.00,CLR,,0.00,WeatherDisplay:10.37,2013-06-17 20:41:00,
2013-06-17 15:46:00,78.7,70.5,29.83,South,184,3.5,3.5,76,0.00,CLR,,0.00,WeatherDisplay:10.37,2013-06-17 20:46:00,
2013-06-17 15:51:00,79.2,71.4,29.82,South,184,0.0,0.0,77,0.00,CLR,,0.00,WeatherDisplay:10.37,2013-06-17 20:51:00,
2013-06-17 15:56:00,80.2,71.6,29.83,South,184,1.2,0.0,75,0.00,CLR,,0.00,WeatherDisplay:10.37,2013-06-17 20:56:00,
2013-06-17 16:01:00,81.0,70.7,29.83,South,184,0.0,0.0,71,0.00,CLR,,0.00,WeatherDisplay:10.37,2013-06-17 21:01:00,
2013-06-17 16:06:00,80.8,70.5,29.82,South,184,1.2,0.0,71,0.00,CLR,,0.00,WeatherDisplay:10.37,2013-06-17 21:06:00,
2013-06-17 16:11:00,80.6,71.1,29.82,South,184,0.0,0.0,73,0.00,CLR,,0.00,WeatherDisplay:10.37,2013-06-17 21:11:00,
2013-06-17 16:16:00,80.6,71.1,29.83,South,184,1.2,0.0,73,0.00,CLR,,0.00,WeatherDisplay:10.37,2013-06-17 21:16:00,
2013-06-17 16:21:00,80.2,70.8,29.83,South,184,1.2,0.0,73,0.00,CLR,,0.00,WeatherDisplay:10.37,2013-06-17 21:21:00,
2013-06-17 16:26:00,79.9,72.8,29.82,South,184,1.2,0.0,79,0.00,CLR,,0.00,WeatherDisplay:10.37,2013-06-17 21:26:00,
2013-06-17 16:31:00,79.4,70.4,29.82,South,184,1.0,1.0,74,0.00,CLR,,0.01,WeatherDisplay:10.37,2013-06-17 21:31:00,
2013-06-17 16:36:00,78.3,71.2,29.83,South,184,3.5,3.5,79,0.03,RA,,0.03,WeatherDisplay:10.37,2013-06-17 21:36:00,
2013-06-17 16:41:00,77.0,71.1,29.84,South,184,2.3,2.3,82,0.04,RA,,0.04,WeatherDisplay:10.37,2013-06-17 21:41:00,
2013-06-17 16:46:00,75.7,70.9,29.85,North,355,3.5,3.5,85,0.08,RA,,0.08,WeatherDisplay:10.37,2013-06-17 21:46:00,
2013-06-17 16:51:00,74.4,70.3,29.85,North,355,0.0,0.0,87,0.14,RA,,0.14,WeatherDisplay:10.37,2013-06-17 21:51:00,
2013-06-17 16:56:00,73.3,69.5,29.85,North,360,4.6,4.6,88,0.18,RA,,0.18,WeatherDisplay:10.37,2013-06-17 21:56:00,
2013-06-17 17:01:00,72.2,68.8,29.84,North,360,0.0,0.0,89,0.22,RA,,0.22,WeatherDisplay:10.37,2013-06-17 22:01:00,
2013-06-17 17:06:00,71.4,68.3,29.83,North,360,0.0,0.0,90,0.23,RA,,0.23,WeatherDisplay:10.37,2013-06-17 22:06:00,
2013-06-17 17:11:00,70.8,67.7,29.82,North,360,3.5,3.5,90,0.25,RA,,0.25,WeatherDisplay:10.37,2013-06-17 22:11:00,
2013-06-17 17:16:00,70.3,67.2,29.83,North,360,0.0,0.0,90,0.26,RA,,0.26,WeatherDisplay:10.37,2013-06-17 22:16:00,
2013-06-17 17:21:00,70.6,68.2,29.82,North,360,0.0,0.0,92,0.26,RA,,0.26,WeatherDisplay:10.37,2013-06-17 22:21:00,
2013-06-17 17:26:00,70.7,68.3,29.81,North,360,0.0,0.0,92,0.26,CLR,,0.26,WeatherDisplay:10.37,2013-06-17 22:26:00,
2013-06-17 17:31:00,70.6,68.2,29.81,North,360,0.0,0.0,92,0.25,CLR,,0.26,WeatherDisplay:10.37,2013-06-17 22:31:00,
2013-06-17 17:36:00,70.8,68.7,29.81,North,360,0.0,0.0,93,0.23,CLR,,0.26,WeatherDisplay:10.37,2013-06-17 22:36:00,
2013-06-17 17:41:00,70.9,68.8,29.81,North,360,0.0,0.0,93,0.22,CLR,,0.26,WeatherDisplay:10.37,2013-06-17 22:41:00,
2013-06-17 17:46:00,70.8,68.7,29.81,North,360,0.0,0.0,93,0.18,CLR,,0.26,WeatherDisplay:10.37,2013-06-17 22:46:00,
2013-06-17 17:51:00,71.2,69.1,29.81,North,360,0.0,0.0,93,0.12,CLR,,0.26,WeatherDisplay:10.37,2013-06-17 22:51:00,
2013-06-17 17:56:00,71.3,69.2,29.81,North,360,0.0,0.0,93,0.08,CLR,,0.26,WeatherDisplay:10.37,2013-06-17 22:56:00,
2013-06-17 18:02:00,71.5,69.7,29.81,North,360,0.0,0.0,94,0.04,CLR,,0.26,WeatherDisplay:10.37,2013-06-17 23:02:00,
2013-06-17 18:07:00,71.6,69.8,29.80,North,360,0.0,0.0,94,0.03,CLR,,0.26,WeatherDisplay:10.37,2013-06-17 23:07:00,
2013-06-17 18:12:00,72.1,70.3,29.80,North,360,1.0,1.0,94,0.01,CLR,,0.26,WeatherDisplay:10.37,2013-06-17 23:12:00,
2013-06-17 18:17:00,72.2,70.1,29.80,North,360,0.0,0.0,93,0.00,CLR,,0.26,WeatherDisplay:10.37,2013-06-17 23:17:00,
2013-06-17 18:22:00,72.2,69.7,29.80,North,360,0.0,0.0,92,0.00,CLR,,0.26,WeatherDisplay:10.37,2013-06-17 23:22:00,
2013-06-17 18:27:00,72.0,68.9,29.80,North,360,0.0,0.0,90,0.00,CLR,,0.26,WeatherDisplay:10.37,2013-06-17 23:27:00,
2013-06-17 18:32:00,71.8,67.7,29.80,North,360,0.0,0.0,87,0.00,CLR,,0.26,WeatherDisplay:10.37,2013-06-17 23:32:00,
2013-06-17 18:37:00,71.9,67.8,29.80,North,360,0.0,0.0,87,0.00,CLR,,0.26,WeatherDisplay:10.37,2013-06-17 23:37:00,
2013-06-17 18:42:00,72.2,68.4,29.80,North,360,0.0,0.0,88,0.00,CLR,,0.26,WeatherDisplay:10.37,2013-06-17 23:42:00,
2013-06-17 18:47:00,72.2,68.1,29.80,North,360,0.0,0.0,87,0.00,CLR,,0.26,WeatherDisplay:10.37,2013-06-17 23:47:00,
2013-06-17 18:52:00,72.2,68.1,29.80,North,360,0.0,0.0,87,0.00,CLR,,0.26,WeatherDisplay:10.37,2013-06-17 23:52:00,
2013-06-17 18:57:00,72.2,67.4,29.80,North,360,0.0,0.0,85,0.00,CLR,,0.26,WeatherDisplay:10.37,2013-06-17 23:57:00,
2013-06-17 19:02:00,72.3,67.5,29.80,North,360,0.0,0.0,85,0.00,CLR,,0.26,WeatherDisplay:10.37,2013-06-18 00:02:00,
2013-06-17 19:07:00,72.4,67.6,29.80,North,360,0.0,0.0,85,0.00,CLR,,0.26,WeatherDisplay:10.37,2013-06-18 00:07:00,
2013-06-17 19:12:00,72.5,68.1,29.81,North,360,0.0,0.0,86,0.00,CLR,,0.26,WeatherDisplay:10.37,2013-06-18 00:12:00,
2013-06-17 19:17:00,72.6,68.2,29.80,North,360,0.0,0.0,86,0.00,CLR,,0.26,WeatherDisplay:10.37,2013-06-18 00:17:00,
2013-06-17 19:22:00,72.7,68.6,29.80,North,360,0.0,0.0,87,0.00,CLR,,0.26,WeatherDisplay:10.37,2013-06-18 00:22:00,
2013-06-17 19:27:00,72.7,68.6,29.81,North,360,0.0,0.0,87,0.00,CLR,,0.26,WeatherDisplay:10.37,2013-06-18 00:27:00,
2013-06-17 19:32:00,72.6,68.5,29.81,North,360,0.0,0.0,87,0.00,CLR,,0.26,WeatherDisplay:10.37,2013-06-18 00:32:00,
2013-06-17 19:37:00,72.7,68.6,29.80,North,360,0.0,0.0,87,0.00,CLR,,0.26,WeatherDisplay:10.37,2013-06-18 00:37:00,
2013-06-17 19:42:00,72.7,68.6,29.81,North,360,0.0,0.0,87,0.00,CLR,,0.26,WeatherDisplay:10.37,2013-06-18 00:42:00,
2013-06-17 19:47:00,72.8,69.0,29.80,North,360,0.0,0.0,88,0.00,CLR,,0.26,WeatherDisplay:10.37,2013-06-18 00:47:00,
2013-06-17 19:52:00,73.0,69.6,29.80,North,360,0.0,0.0,89,0.00,CLR,,0.26,WeatherDisplay:10.37,2013-06-18 00:52:00,
2013-06-17 19:57:00,73.1,69.7,29.80,North,360,0.0,0.0,89,0.00,CLR,,0.26,WeatherDisplay:10.37,2013-06-18 00:57:00,
2013-06-17 20:02:00,73.1,70.0,29.80,North,360,0.0,0.0,90,0.00,CLR,,0.26,WeatherDisplay:10.37,2013-06-18 01:02:00,
2013-06-17 20:07:00,72.8,69.7,29.80,North,360,0.0,0.0,90,0.00,CLR,,0.26,WeatherDisplay:10.37,2013-06-18 01:07:00,
2013-06-17 20:12:00,72.6,69.5,29.80,North,360,0.0,0.0,90,0.00,CLR,,0.26,WeatherDisplay:10.37,2013-06-18 01:12:00,
2013-06-17 20:17:00,72.4,69.3,29.80,North,360,0.0,0.0,90,0.00,CLR,,0.26,WeatherDisplay:10.37,2013-06-18 01:17:00,
2013-06-17 20:22:00,72.1,68.7,29.81,North,360,0.0,0.0,89,0.00,CLR,,0.26,WeatherDisplay:10.37,2013-06-18 01:22:00,
2013-06-17 20:27:00,71.7,68.0,29.81,North,360,0.0,0.0,88,0.00,CLR,,0.26,WeatherDisplay:10.37,2013-06-18 01:27:00,
2013-06-17 20:32:00,71.4,68.0,29.81,North,360,0.0,0.0,89,0.00,CLR,,0.26,WeatherDisplay:10.37,2013-06-18 01:32:00,
2013-06-17 20:37:00,71.3,67.9,29.80,North,360,0.0,0.0,89,0.00,CLR,,0.26,WeatherDisplay:10.37,2013-06-18 01:37:00,
2013-06-17 20:42:00,71.2,68.1,29.80,North,360,0.0,0.0,90,0.00,CLR,,0.26,WeatherDisplay:10.37,2013-06-18 01:42:00,
2013-06-17 20:47:00,71.2,68.4,29.80,North,360,0.0,0.0,91,0.00,CLR,,0.26,WeatherDisplay:10.37,2013-06-18 01:47:00,
2013-06-17 20:52:00,71.3,68.9,29.81,North,360,0.0,0.0,92,0.00,CLR,,0.26,WeatherDisplay:10.37,2013-06-18 01:52:00,
2013-06-17 20:57:00,71.0,68.2,29.81,North,360,0.0,0.0,91,0.00,CLR,,0.26,WeatherDisplay:10.37,2013-06-18 01:57:00,
2013-06-17 21:02:00,71.0,68.6,29.81,North,360,0.0,0.0,92,0.00,CLR,,0.26,WeatherDisplay:10.37,2013-06-18 02:02:00,
2013-06-17 21:07:00,71.1,68.7,29.82,North,360,0.0,0.0,92,0.00,CLR,,0.26,WeatherDisplay:10.37,2013-06-18 02:07:00,
2013-06-17 21:12:00,71.1,69.0,29.82,North,360,0.0,0.0,93,0.00,CLR,,0.26,WeatherDisplay:10.37,2013-06-18 02:12:00,
2013-06-17 21:17:00,71.0,68.9,29.82,North,360,0.0,0.0,93,0.00,CLR,,0.26,WeatherDisplay:10.37,2013-06-18 02:17:00,
2013-06-17 21:22:00,70.8,68.7,29.82,North,360,0.0,0.0,93,0.00,CLR,,0.26,WeatherDisplay:10.37,2013-06-18 02:22:00,
2013-06-17 21:27:00,70.6,68.5,29.82,North,360,0.0,0.0,93,0.00,CLR,,0.26,WeatherDisplay:10.37,2013-06-18 02:27:00,
2013-06-17 21:32:00,70.4,68.3,29.82,North,360,0.0,0.0,93,0.00,CLR,,0.26,WeatherDisplay:10.37,2013-06-18 02:32:00,
2013-06-17 21:37:00,70.1,68.3,29.82,North,360,0.0,0.0,94,0.00,CLR,,0.26,WeatherDisplay:10.37,2013-06-18 02:37:00,
2013-06-17 21:42:00,69.8,67.7,29.83,North,360,0.0,0.0,93,0.00,CLR,,0.26,WeatherDisplay:10.37,2013-06-18 02:42:00,
2013-06-17 21:47:00,69.7,67.9,29.83,North,360,0.0,0.0,94,0.00,CLR,,0.26,WeatherDisplay:10.37,2013-06-18 02:47:00,
2013-06-17 21:52:00,69.7,67.9,29.83,North,360,0.0,0.0,94,0.00,CLR,,0.26,WeatherDisplay:10.37,2013-06-18 02:52:00,
2013-06-17 21:57:00,69.5,67.7,29.83,North,360,0.0,0.0,94,0.00,CLR,,0.26,WeatherDisplay:10.37,2013-06-18 02:57:00,
2013-06-17 22:02:00,69.4,67.6,29.83,North,360,0.0,0.0,94,0.00,CLR,,0.26,WeatherDisplay:10.37,2013-06-18 03:02:00,
2013-06-17 22:07:00,69.2,67.4,29.84,North,360,0.0,0.0,94,0.00,CLR,,0.26,WeatherDisplay:10.37,2013-06-18 03:07:00,
2013-06-17 22:12:00,69.0,67.2,29.84,North,360,0.0,0.0,94,0.00,CLR,,0.26,WeatherDisplay:10.37,2013-06-18 03:12:00,
2013-06-17 22:17:00,68.8,67.0,29.84,North,360,0.0,0.0,94,0.00,CLR,,0.26,WeatherDisplay:10.37,2013-06-18 03:17:00,
2013-06-17 22:22:00,68.7,66.9,29.84,North,360,0.0,0.0,94,0.00,CLR,,0.26,WeatherDisplay:10.37,2013-06-18 03:22:00,
2013-06-17 22:27:00,68.6,66.8,29.84,North,360,0.0,0.0,94,0.00,CLR,,0.26,WeatherDisplay:10.37,2013-06-18 03:27:00,
2013-06-17 22:32:00,68.5,66.7,29.84,North,360,0.0,0.0,94,0.00,CLR,,0.26,WeatherDisplay:10.37,2013-06-18 03:32:00,
2013-06-17 22:37:00,68.3,66.5,29.84,North,360,0.0,0.0,94,0.00,CLR,,0.26,WeatherDisplay:10.37,2013-06-18 03:37:00,
2013-06-17 22:42:00,68.2,66.4,29.84,North,360,0.0,0.0,94,0.00,CLR,,0.26,WeatherDisplay:10.37,2013-06-18 03:42:00,
2013-06-17 22:47:00,68.1,66.3,29.84,North,360,0.0,0.0,94,0.00,CLR,,0.26,WeatherDisplay:10.37,2013-06-18 03:47:00,
2013-06-17 22:52:00,68.0,66.2,29.84,North,360,0.0,0.0,94,0.00,CLR,,0.26,WeatherDisplay:10.37,2013-06-18 03:52:00,
2013-06-17 22:57:00,67.9,66.1,29.85,North,360,0.0,0.0,94,0.00,CLR,,0.26,WeatherDisplay:10.37,2013-06-18 03:57:00,
2013-06-17 23:01:00,67.8,66.0,29.84,North,360,0.0,0.0,94,0.00,CLR,,0.26,WeatherDisplay:10.37,2013-06-18 04:01:00,
2013-06-17 23:06:00,67.7,65.9,29.84,North,360,0.0,0.0,94,0.00,CLR,,0.26,WeatherDisplay:10.37,2013-06-18 04:06:00,
2013-06-17 23:11:00,67.6,66.1,29.84,North,360,0.0,0.0,95,0.00,CLR,,0.26,WeatherDisplay:10.37,2013-06-18 04:11:00,
2013-06-17 23:16:00,67.4,65.6,29.84,North,360,0.0,0.0,94,0.00,CLR,,0.26,WeatherDisplay:10.37,2013-06-18 04:16:00,
2013-06-17 23:21:00,67.2,65.7,29.84,North,360,0.0,0.0,95,0.00,CLR,,0.26,WeatherDisplay:10.37,2013-06-18 04:21:00,
2013-06-17 23:26:00,67.1,65.6,29.84,North,360,0.0,0.0,95,0.00,CLR,,0.26,WeatherDisplay:10.37,2013-06-18 04:26:00,
2013-06-17 23:31:00,66.8,65.3,29.84,North,360,0.0,0.0,95,0.00,CLR,,0.26,WeatherDisplay:10.37,2013-06-18 04:31:00,
2013-06-17 23:36:00,66.7,65.2,29.85,North,360,0.0,0.0,95,0.00,CLR,,0.26,WeatherDisplay:10.37,2013-06-18 04:36:00,
2013-06-17 23:41:00,66.6,65.1,29.85,North,360,0.0,0.0,95,0.00,CLR,,0.26,WeatherDisplay:10.37,2013-06-18 04:41:00,
2013-06-17 23:46:00,66.6,65.1,29.84,North,360,0.0,0.0,95,0.00,CLR,,0.26,WeatherDisplay:10.37,2013-06-18 04:46:00,
2013-06-17 23:51:00,66.5,65.0,29.84,North,360,0.0,0.0,95,0.00,CLR,,0.26,WeatherDisplay:10.37,2013-06-18 04:51:00,
2013-06-17 23:56:00,66.4,64.9,29.85,North,360,2.3,2.3,95,0.00,CLR,,0.26,WeatherDisplay:10.37,2013-06-18 04:56:00,